NCAR-RAP Real-Time Weather Data

Output produced by METARs form (08 May 2021  15:38 UTC)
found at http://weather.rap.ucar.edu/surface/
 
KPHL 081454Z 29013KT 10SM FEW030 BKN039 BKN130 BKN250 12/04 A2989 RMK AO2 SLP120 T01170039 51010
KPHL 081354Z 27013G21KT 10SM SCT028 BKN037 BKN220 12/05 A2988 RMK AO2 SLP119 SCT V BKN T01170050
KPHL 081254Z 27010KT 10SM SCT016 BKN250 11/06 A2988 RMK AO2 SLP116 T01110061
KPHL 081154Z 30008KT 10SM FEW011 SCT024 SCT065 10/07 A2986 RMK AO2 SLP110 60008 70016 T01000067 10111 20089 53009
KPHL 081054Z 26009KT 10SM FEW011 SCT023 BKN065 09/07 A2985 RMK AO2 SLP107 T00940072
KPHL 081026Z 30004KT 10SM FEW011 SCT021 SCT065 09/07 A2983 RMK AO2 T00940067
KPHL 080954Z 31006KT 10SM SCT014 BKN021 09/07 A2983 RMK AO2 SLP101 T00940072
KPHL 080937Z 30007KT 10SM SCT014 BKN021 09/07 A2983 RMK AO2 T00940072
KPHL 080854Z 28007KT 10SM SCT009 OVC014 10/08 A2983 RMK AO2 RAE36 SLP101 P0000 60008 T01000083 55003
KPHL 080836Z 27005KT 10SM SCT009 OVC014 10/08 A2983 RMK AO2 RAE36 P0000 T01000083
KPHL 080754Z 27007KT 10SM -RA BKN014 OVC040 10/08 A2983 RMK AO2 SLP101 P0006 T01000083
KPHL 080747Z 28005KT 10SM -RA BKN014 OVC040 10/08 A2983 RMK AO2 P0006 T01000083
KPHL 080727Z 26003KT 8SM -RA SCT017 OVC037 10/08 A2983 RMK AO2 P0006 T01000083
KPHL 080654Z 26007KT 8SM -RA BKN011 OVC025 10/08 A2984 RMK AO2 RAB13 SLP104 P0002 T01000083
KPHL 080554Z 33004KT 10SM BKN011 OVC042 11/09 A2984 RMK AO2 SLP104 60008 T01110089 10144 20106 56011
KPHL 080545Z 34004KT 10SM BKN012 OVC042 11/09 A2984 RMK AO2 T01110089
KPHL 080519Z 00000KT 10SM FEW025 OVC050 11/09 A2985 RMK AO2 T01110089
KPHL 080454Z 35004KT 9SM FEW025 OVC050 11/09 A2985 RMK AO2 RAE53 SLP107 P0001 T01060094 402060094
KPHL 080426Z 33007KT 7SM -RA FEW025 OVC048 11/09 A2985 RMK AO2 P0001 T01110089
KPHL 080354Z 30007KT 7SM -RA SCT013 BKN025 11/09 A2986 RMK AO2 SLP112 P0005 T01110094
KPHL 080348Z 25007KT 7SM -RA SCT013 BKN025 11/09 A2986 RMK AO2 P0004
KPHL 080338Z 27008KT 6SM -RA BR BKN013 OVC025 11/09 A2987 RMK AO2 P0004 T01110094
KPHL 080254Z 28009KT 6SM RA BKN020 OVC040 12/09 A2987 RMK AO2 RAB14 SLP115 P0002 60002 T01170089 52013
KPHL 080226Z 30007KT 7SM -RA BKN022 OVC040 13/08 A2987 RMK AO2 RAB14 P0000 T01280083
KPHL 080154Z 31009KT 10SM OVC046 13/08 A2986 RMK AO2 RAB15E37 SLP112 P0000 T01330083
KPHL 080054Z 13006KT 10SM OVC048 13/07 A2985 RMK AO2 RAE04B21E29 SLP106 P0000 T01330072
KPHL 072354Z 12005KT 10SM -RA OVC050 14/07 A2984 RMK AO2 RAB46 SLP103 P0000 60000 T01440072 10206 20144 53010
KPHL 072254Z 04006KT 10SM BKN060 OVC085 16/06 A2982 RMK AO2 RAE2158 SLP097 P0000 T01560056
KPHL 072154Z 10010KT 10SM -RA BKN070 OVC100 17/05 A2982 RMK AO2 RAB39 SLP096 P0000 T01720050
KPHL 072054Z 06007KT 10SM SCT075 BKN090 OVC250 18/02 A2981 RMK AO2 SLP092 T01830022 56015
KPHL 071954Z 20003KT 10SM SCT070 BKN110 OVC250 19/03 A2981 RMK AO2 SLP095 T01890028
KPHL 071854Z VRB03KT 10SM SCT065 BKN110 BKN200 BKN250 21/04 A2983 RMK AO2 SLP100 T02060039
KPHL 071754Z VRB03KT 10SM SCT065 BKN100 BKN200 BKN250 18/01 A2985 RMK AO2 SLP107 T01830006 10194 20128 58020
KPHL 071654Z 10004KT 10SM FEW055 FEW150 SCT190 BKN250 19/02 A2987 RMK AO2 SLP114 T01890022
KPHL 071554Z 00000KT 10SM FEW110 BKN200 BKN230 18/01 A2989 RMK AO2 SLP121 T01830011
KPHL 071454Z 06005KT 10SM FEW110 BKN230 BKN260 17/02 A2991 RMK AO2 SLP127 T01670017 58004
KPHL 071354Z 08006KT 10SM FEW110 BKN230 15/01 A2992 RMK AO2 SLP130 T01500011
KPHL 071254Z 05006G14KT 10SM BKN250 13/00 A2992 RMK AO2 SLP132 T01330000
KPHL 071154Z 05006KT 10SM FEW130 BKN250 13/00 A2992 RMK AO2 SLP131 T01280000 10128 20094 55002
KPHL 071054Z 04007KT 10SM FEW130 SCT250 11/M02 A2992 RMK AO2 SLP131 T01111017
KPHL 070954Z 04005KT 10SM FEW130 FEW250 10/M01 A2992 RMK AO2 SLP131 T01001011
KPHL 070854Z 04007KT 10SM FEW150 10/M01 A2993 RMK AO2 SLP133 T01001006 58008
KPHL 070754Z 04008KT 10SM BKN170 BKN250 11/M01 A2994 RMK AO2 SLP137 T01111011
KPHL 070654Z 04004KT 10SM FEW150 BKN250 12/M01 A2994 RMK AO2 SLP139 T01171006
KPHL 070554Z 04008KT 10SM SCT180 BKN250 12/M01 A2995 RMK AO2 SLP141 T01171006 10167 20111 58005
KPHL 070454Z 03004KT 10SM SCT180 BKN250 13/01 A2996 RMK AO2 SLP143 T01280006 401890100
KPHL 070354Z 36007KT 10SM BKN180 OVC220 14/01 A2996 RMK AO2 SLP145 T01440011
KPHL 070254Z 33005KT 10SM BKN180 15/02 A2996 RMK AO2 SLP146 T01500022 50010
KPHL 070154Z 32005KT 10SM BKN180 16/03 A2997 RMK AO2 SLP148 T01560028
KPHL 070054Z 33005KT 10SM BKN250 17/01 A2995 RMK AO2 SLP142 T01670011
KPHL 062354Z 36007KT 10SM BKN250 17/01 A2993 RMK AO2 SLP136 T01670011 10189 20167 53004
KPHL 062254Z 31007KT 10SM BKN250 18/02 A2992 RMK AO2 SLP130 T01780017
KPHL 062154Z 32008KT 10SM FEW065 BKN250 18/02 A2992 RMK AO2 SLP131 T01830017
KPHL 062054Z 33005KT 10SM FEW065 BKN250 18/01 A2992 RMK AO2 SLP132 T01780011 56015
KPHL 061954Z 30013G16KT 10SM FEW065 SCT250 18/02 A2993 RMK AO2 SLP134 T01830017
KPHL 061854Z 31010KT 10SM FEW060 SCT280 18/01 A2995 RMK AO2 SLP143 T01780011
KPHL 061754Z 33007KT 10SM FEW060 SCT280 17/03 A2997 RMK AO2 PK WND 34026/1720 SLP147 T01720028 10172 20117 56018
KPHL 061654Z 33007G18KT 10SM FEW050 FEW280 16/03 A2998 RMK AO2 SLP151 T01610028
KPHL 061554Z 34008KT 300V010 10SM SCT048 SCT280 16/04 A3000 RMK AO2 SLP159 T01560039